Time;durP1;ratioP1;P1;durP2;ratioP2;P2;SDS_P1;SDS_P2;PMS_P1;PMS_P2;Temp;Humidity;BMP_temperature;BMP_pressure;BME280_temperature;BME280_humidity;BME280_pressure;Samples;Min_cycle;Max_cycle;Signal;HPM_P1;HPM_P2
2021/12/18 00:00:43;;;;;;;20.70;8.40;;;5.90;97.30;;;;;;5034673;23;20700;-86
2021/12/18 00:03:09;;;;;;;24.30;7.10;;;5.90;97.30;;;;;;4995238;28;20524;-84
2021/12/18 00:05:34;;;;;;;22.73;7.70;;;5.90;97.30;;;;;;4995626;28;20213;-86
2021/12/18 00:08:01;;;;;;;19.53;7.73;;;5.90;97.30;;;;;;4995619;28;20200;-86
2021/12/18 00:10:29;;;;;;;25.27;8.50;;;5.90;97.30;;;;;;5009663;28;20193;-85
2021/12/18 00:12:54;;;;;;;20.80;7.67;;;5.90;97.30;;;;;;4960187;28;20421;-86
2021/12/18 00:15:22;;;;;;;25.10;7.90;;;5.90;97.30;;;;;;4976433;28;20491;-85
2021/12/18 00:17:48;;;;;;;22.83;7.20;;;5.90;97.30;;;;;;4976301;28;20268;-85
2021/12/18 00:20:15;;;;;;;18.73;7.30;;;5.90;97.30;;;;;;4993231;28;20417;-85
2021/12/18 00:22:42;;;;;;;20.47;7.10;;;5.90;97.30;;;;;;4976246;28;20899;-86
2021/12/18 00:25:08;;;;;;;28.50;7.20;;;5.90;97.30;;;;;;4975939;28;20484;-85
2021/12/18 00:27:33;;;;;;;15.57;6.50;;;6.00;97.30;;;;;;4975830;28;20931;-85
2021/12/18 00:29:59;;;;;;;18.67;7.23;;;6.00;97.30;;;;;;4975585;28;20421;-86
2021/12/18 00:32:24;;;;;;;18.83;7.63;;;5.90;97.30;;;;;;4975583;28;20652;-85
2021/12/18 00:34:50;;;;;;;21.23;7.20;;;5.90;97.30;;;;;;4975873;28;20204;-85
2021/12/18 00:37:16;;;;;;;23.23;7.83;;;5.90;97.30;;;;;;4976142;28;20196;-86
2021/12/18 00:39:51;;;;;;;22.57;7.33;;;5.90;97.30;;;;;;4976045;28;20186;-85
2021/12/18 00:44:51;;;;;;;22.63;8.40;;;5.80;97.30;;;;;;4993439;28;20444;-85
2021/12/18 00:47:17;;;;;;;20.80;7.57;;;5.80;97.30;;;;;;4987479;28;20417;-85
2021/12/18 00:49:43;;;;;;;23.97;7.87;;;5.80;97.30;;;;;;4991520;28;20182;-86
2021/12/18 00:52:08;;;;;;;25.37;7.90;;;5.90;97.30;;;;;;4989274;28;20438;-85
2021/12/18 00:54:35;;;;;;;26.80;7.33;;;5.90;97.30;;;;;;4974534;28;20182;-86
2021/12/18 00:57:02;;;;;;;26.23;8.67;;;5.90;97.30;;;;;;4972429;28;20190;-86
2021/12/18 00:59:28;;;;;;;23.03;7.00;;;5.80;97.30;;;;;;4971295;28;20807;-86
2021/12/18 01:01:54;;;;;;;20.90;7.10;;;5.80;97.30;;;;;;4975268;28;20471;-85
2021/12/18 01:04:20;;;;;;;24.13;9.00;;;5.80;97.30;;;;;;4974826;28;20417;-86
2021/12/18 01:06:45;;;;;;;25.03;8.47;;;5.80;97.30;;;;;;4964387;28;20468;-87
2021/12/18 01:09:11;;;;;;;22.27;7.37;;;5.80;97.30;;;;;;4972185;28;20758;-86
2021/12/18 01:11:43;;;;;;;20.70;8.13;;;5.80;97.30;;;;;;4972192;28;20201;-86
2021/12/18 01:24:53;;;;;;;16.80;6.20;;;5.80;97.30;;;;;;4995713;28;20519;-85
2021/12/18 01:27:19;;;;;;;20.43;6.50;;;5.80;97.30;;;;;;4978836;28;20421;-85
2021/12/18 01:29:44;;;;;;;21.07;6.57;;;5.80;97.30;;;;;;4978943;28;20421;-86
2021/12/18 01:32:10;;;;;;;19.83;6.70;;;5.80;97.30;;;;;;4961777;28;20471;-85
2021/12/18 01:34:37;;;;;;;18.73;6.60;;;5.80;97.30;;;;;;4975041;28;20214;-86
2021/12/18 01:37:03;;;;;;;13.60;5.90;;;5.80;97.30;;;;;;4975260;28;20566;-86
2021/12/18 01:39:30;;;;;;;25.77;7.93;;;5.70;97.30;;;;;;4975084;28;20425;-86
2021/12/18 01:42:08;;;;;;;22.30;8.67;;;5.70;97.30;;;;;;4974961;28;20500;-86
2021/12/18 01:52:40;;;;;;;24.03;8.03;;;5.70;97.30;;;;;;4976101;28;20433;-86
2021/12/18 01:55:08;;;;;;;19.63;7.63;;;5.70;97.30;;;;;;4974565;28;20523;-86
2021/12/18 01:57:33;;;;;;;24.50;8.37;;;5.70;97.30;;;;;;4974269;28;20417;-86
2021/12/18 01:59:59;;;;;;;28.17;9.10;;;5.70;97.30;;;;;;4972379;28;20558;-86
2021/12/18 02:02:25;;;;;;;26.00;9.10;;;5.70;97.30;;;;;;4975628;28;20234;-85
2021/12/18 02:04:51;;;;;;;36.40;9.10;;;5.70;97.30;;;;;;4974563;28;20233;-86
2021/12/18 02:07:17;;;;;;;27.80;9.40;;;5.70;97.30;;;;;;4975764;28;20434;-86
2021/12/18 02:09:58;;;;;;;28.60;9.93;;;5.70;97.30;;;;;;4975603;28;20185;-85
2021/12/18 02:12:31;;;;;;;31.97;11.20;;;5.60;97.30;;;;;;4975688;28;20434;-87
2021/12/18 02:22:59;;;;;;;25.83;9.27;;;5.70;97.30;;;;;;4976312;28;20406;-86
2021/12/18 02:25:25;;;;;;;26.50;8.90;;;5.60;97.30;;;;;;4974555;28;20466;-86
2021/12/18 02:27:52;;;;;;;27.67;9.63;;;5.60;97.30;;;;;;4982297;28;20273;-86
2021/12/18 02:30:21;;;;;;;31.43;9.10;;;5.60;97.30;;;;;;4965174;28;20509;-85
2021/12/18 02:32:48;;;;;;;35.90;8.67;;;5.60;97.30;;;;;;4993278;28;20417;-85
2021/12/18 02:35:28;;;;;;;32.50;9.50;;;5.60;97.30;;;;;;4965268;28;20426;-86
2021/12/18 02:38:12;;;;;;;26.50;9.10;;;5.60;97.30;;;;;;4976918;28;20440;-85
2021/12/18 02:41:02;;;;;;;26.37;7.93;;;5.60;97.30;;;;;;4974824;28;20524;-86
2021/12/18 02:43:38;;;;;;;32.63;8.50;;;5.60;97.30;;;;;;4975048;28;20428;-86
2021/12/18 02:46:08;;;;;;;23.47;7.70;;;5.60;97.30;;;;;;4974485;28;20457;-86
2021/12/18 02:48:36;;;;;;;27.83;7.40;;;5.60;97.30;;;;;;4974480;28;20414;-86
2021/12/18 02:51:07;;;;;;;24.60;8.57;;;5.60;97.30;;;;;;4974306;28;20445;-85
2021/12/18 02:53:35;;;;;;;29.73;8.20;;;5.60;97.30;;;;;;4974633;28;20406;-86
2021/12/18 02:56:05;;;;;;;24.77;7.87;;;5.60;97.30;;;;;;4974282;28;20450;-86
2021/12/18 02:58:35;;;;;;;21.90;8.13;;;5.60;97.30;;;;;;4977688;28;20507;-86
2021/12/18 03:01:02;;;;;;;23.43;8.43;;;5.50;97.30;;;;;;4993020;28;20477;-86
2021/12/18 03:03:31;;;;;;;27.53;10.40;;;5.50;97.30;;;;;;4989625;28;20505;-86
2021/12/18 03:08:45;;;;;;;25.80;7.70;;;5.60;97.30;;;;;;4991904;28;20423;-85
2021/12/18 03:22:54;;;;;;;24.10;8.17;;;5.60;97.30;;;;;;4995005;28;20437;-84
2021/12/18 03:25:04;;;;;;;26.43;8.50;;;5.50;97.30;;;;;;4992643;28;20464;-86
2021/12/18 03:27:30;;;;;;;27.07;8.53;;;5.50;97.30;;;;;;4976542;28;20421;-85
2021/12/18 03:29:56;;;;;;;32.60;8.37;;;5.50;97.30;;;;;;4976860;28;20428;-85
2021/12/18 03:32:23;;;;;;;25.50;8.97;;;5.50;97.30;;;;;;4994190;28;20994;-85
2021/12/18 03:34:50;;;;;;;33.47;9.00;;;5.50;97.30;;;;;;4976797;28;20441;-86
2021/12/18 03:37:15;;;;;;;29.87;9.90;;;5.50;97.30;;;;;;4976233;28;20965;-86
2021/12/18 03:39:41;;;;;;;29.50;9.57;;;5.50;97.30;;;;;;4976830;28;20423;-86
2021/12/18 03:42:07;;;;;;;30.40;10.03;;;5.50;97.30;;;;;;4993783;28;20197;-86
2021/12/18 03:44:33;;;;;;;33.33;9.40;;;5.50;97.30;;;;;;4989942;28;20177;-86
2021/12/18 03:46:59;;;;;;;38.83;10.13;;;5.50;97.30;;;;;;4977126;28;20662;-86
2021/12/18 03:49:25;;;;;;;36.90;9.23;;;5.50;97.30;;;;;;4977541;28;20409;-86
2021/12/18 03:51:50;;;;;;;30.63;9.60;;;5.50;97.30;;;;;;4977144;28;20198;-85
2021/12/18 03:54:16;;;;;;;33.97;10.60;;;5.50;97.30;;;;;;4978054;28;20478;-85
2021/12/18 03:56:42;;;;;;;34.80;9.40;;;5.50;97.30;;;;;;4994676;28;20173;-84
2021/12/18 03:59:07;;;;;;;35.10;8.80;;;5.40;97.30;;;;;;4977653;28;20182;-84
2021/12/18 04:01:32;;;;;;;33.50;9.63;;;5.40;97.30;;;;;;4994242;28;20288;-85
2021/12/18 04:03:58;;;;;;;30.37;9.83;;;5.40;97.30;;;;;;4994687;28;20240;-86
2021/12/18 04:06:23;;;;;;;27.00;7.97;;;5.50;97.30;;;;;;4970217;28;20210;-85
2021/12/18 04:08:49;;;;;;;31.43;10.27;;;5.50;97.30;;;;;;4971829;28;20182;-86
2021/12/18 04:11:15;;;;;;;20.70;7.30;;;5.40;97.30;;;;;;4972398;28;20212;-86
2021/12/18 04:13:44;;;;;;;30.73;8.97;;;5.50;97.30;;;;;;4975982;28;20182;-86
2021/12/18 04:16:10;;;;;;;31.70;9.43;;;5.50;97.30;;;;;;4975245;28;20181;-86
2021/12/18 04:18:36;;;;;;;30.53;9.90;;;5.50;97.30;;;;;;4975605;28;20989;-86
2021/12/18 04:21:02;;;;;;;29.10;10.00;;;5.50;97.30;;;;;;4975235;28;20437;-85
2021/12/18 04:23:28;;;;;;;29.27;9.50;;;5.50;97.30;;;;;;4972178;28;20209;-86
2021/12/18 04:25:55;;;;;;;37.90;8.67;;;5.50;97.30;;;;;;4972105;28;21167;-86
2021/12/18 04:28:21;;;;;;;25.00;8.30;;;5.50;97.30;;;;;;4972063;28;20174;-86
2021/12/18 04:30:46;;;;;;;35.70;10.70;;;5.50;97.30;;;;;;4972870;28;20430;-85
2021/12/18 04:33:12;;;;;;;23.43;8.60;;;5.50;97.30;;;;;;4972690;28;20657;-84
2021/12/18 04:35:37;;;;;;;38.63;9.97;;;5.40;97.30;;;;;;4972257;28;20645;-86
2021/12/18 04:38:03;;;;;;;33.70;11.27;;;5.50;97.30;;;;;;4972335;28;20266;-84
2021/12/18 04:40:28;;;;;;;32.13;8.67;;;5.50;97.30;;;;;;4975507;28;20606;-85
2021/12/18 04:42:54;;;;;;;31.63;9.40;;;5.40;97.30;;;;;;4975341;28;20767;-85
2021/12/18 04:45:20;;;;;;;30.53;10.83;;;5.40;97.30;;;;;;4975357;28;20698;-84
2021/12/18 04:47:46;;;;;;;41.47;9.47;;;5.40;97.30;;;;;;4975896;28;20425;-85
2021/12/18 04:50:11;;;;;;;34.33;9.67;;;5.40;97.30;;;;;;4974782;28;20182;-85
2021/12/18 04:52:37;;;;;;;40.67;10.83;;;5.40;97.30;;;;;;4975651;28;20224;-84
2021/12/18 04:55:04;;;;;;;34.63;9.40;;;5.40;97.30;;;;;;4976067;28;20186;-85
2021/12/18 04:57:30;;;;;;;39.30;11.33;;;5.40;97.30;;;;;;4975672;28;20240;-85
2021/12/18 04:59:55;;;;;;;37.57;9.00;;;5.40;97.30;;;;;;4979291;28;20424;-85
2021/12/18 05:02:25;;;;;;;39.07;9.97;;;5.40;97.30;;;;;;4976183;28;20238;-84
2021/12/18 05:04:52;;;;;;;35.37;10.40;;;5.40;97.30;;;;;;4977212;28;20630;-85
2021/12/18 05:07:18;;;;;;;36.50;10.07;;;5.40;97.30;;;;;;4960055;28;20417;-85
2021/12/18 05:09:44;;;;;;;23.80;9.03;;;5.40;97.30;;;;;;4975857;28;20424;-84
2021/12/18 05:12:11;;;;;;;31.53;9.80;;;5.40;97.30;;;;;;4976367;28;20680;-85
2021/12/18 05:14:36;;;;;;;33.50;10.17;;;5.40;97.30;;;;;;4964106;28;20292;-85
2021/12/18 05:17:02;;;;;;;28.43;9.57;;;5.40;97.30;;;;;;4958298;28;20434;-86
2021/12/18 05:19:27;;;;;;;25.90;9.53;;;5.40;97.30;;;;;;4959759;28;20174;-85
2021/12/18 05:21:53;;;;;;;36.30;9.50;;;5.40;97.30;;;;;;4959556;28;20202;-85
2021/12/18 05:24:18;;;;;;;29.30;8.83;;;5.40;97.30;;;;;;4959607;28;20645;-84
2021/12/18 05:26:47;;;;;;;31.17;10.20;;;5.40;97.30;;;;;;4959719;28;20221;-84
2021/12/18 05:29:13;;;;;;;28.27;11.00;;;5.40;97.30;;;;;;4970292;28;20182;-86
2021/12/18 05:31:38;;;;;;;34.97;10.40;;;5.40;97.30;;;;;;4960030;28;20449;-84
2021/12/18 05:34:05;;;;;;;44.17;12.07;;;5.40;97.30;;;;;;4957723;28;20189;-85
2021/12/18 05:36:40;;;;;;;28.60;9.33;;;5.40;97.30;;;;;;4953482;28;20189;-86
2021/12/18 05:39:10;;;;;;;26.10;9.47;;;5.40;97.30;;;;;;4971180;28;20441;-85
2021/12/18 05:41:37;;;;;;;27.20;8.87;;;5.40;97.30;;;;;;4957894;28;20917;-83
2021/12/18 05:44:03;;;;;;;38.13;10.10;;;5.40;97.30;;;;;;4970040;28;21084;-84
2021/12/18 05:46:29;;;;;;;30.97;9.87;;;5.40;97.30;;;;;;4971022;28;20553;-85
2021/12/18 05:48:54;;;;;;;37.67;11.17;;;5.40;97.30;;;;;;4965806;28;20874;-85
2021/12/18 05:51:20;;;;;;;38.77;10.87;;;5.40;97.30;;;;;;4976966;28;20206;-85
2021/12/18 05:53:46;;;;;;;29.73;8.97;;;5.40;97.30;;;;;;4968894;28;20219;-86
2021/12/18 05:56:12;;;;;;;28.40;9.23;;;5.40;97.30;;;;;;4970891;28;20293;-85
2021/12/18 05:58:38;;;;;;;26.73;9.47;;;5.40;97.30;;;;;;4969573;28;20226;-85
2021/12/18 06:01:03;;;;;;;37.23;10.40;;;5.40;97.30;;;;;;4969996;28;20472;-84
2021/12/18 06:03:29;;;;;;;28.17;9.70;;;5.40;97.30;;;;;;4960358;28;20254;-84
2021/12/18 06:05:54;;;;;;;31.70;9.00;;;5.40;97.30;;;;;;4975200;28;20209;-84
2021/12/18 06:08:20;;;;;;;31.73;10.60;;;5.40;97.30;;;;;;4976791;28;20179;-85
2021/12/18 06:10:45;;;;;;;33.93;11.17;;;5.40;97.30;;;;;;4976454;28;20202;-85
2021/12/18 06:13:11;;;;;;;36.50;10.50;;;5.40;97.30;;;;;;4968879;28;20262;-84
2021/12/18 06:15:36;;;;;;;35.60;9.93;;;5.40;97.30;;;;;;4954223;28;20233;-85
2021/12/18 06:18:02;;;;;;;35.27;10.47;;;5.40;97.30;;;;;;4960530;28;20186;-86
2021/12/18 06:20:34;;;;;;;44.70;11.23;;;5.40;97.30;;;;;;4961678;28;20720;-85
2021/12/18 06:23:00;;;;;;;37.83;12.33;;;5.40;97.30;;;;;;4944784;29;20193;-85
2021/12/18 06:25:25;;;;;;;28.83;8.57;;;5.40;97.30;;;;;;4960885;28;20466;-86
2021/12/18 06:27:52;;;;;;;30.47;9.40;;;5.40;97.30;;;;;;4960300;28;20198;-85
2021/12/18 06:30:19;;;;;;;31.63;9.40;;;5.40;97.30;;;;;;4978052;28;20170;-85
2021/12/18 06:32:45;;;;;;;32.20;10.03;;;5.40;97.30;;;;;;4947178;29;20433;-85
2021/12/18 06:35:11;;;;;;;32.33;11.30;;;5.40;97.30;;;;;;4940712;29;20437;-85
2021/12/18 06:37:37;;;;;;;34.87;10.90;;;5.40;97.30;;;;;;4958442;29;20419;-85
2021/12/18 06:40:04;;;;;;;31.13;9.57;;;5.40;97.30;;;;;;4968805;28;20178;-86
2021/12/18 06:42:30;;;;;;;39.63;11.90;;;5.40;97.30;;;;;;4949921;29;20493;-84
2021/12/18 06:44:56;;;;;;;33.03;9.37;;;5.40;97.30;;;;;;4959291;28;20976;-85
2021/12/18 06:47:21;;;;;;;31.60;10.20;;;5.40;97.30;;;;;;4961269;28;20415;-86
2021/12/18 06:49:47;;;;;;;34.80;8.97;;;5.40;97.30;;;;;;4975725;28;20174;-85
2021/12/18 06:52:12;;;;;;;32.07;9.50;;;5.40;97.30;;;;;;4960318;28;20852;-82
2021/12/18 06:54:38;;;;;;;33.37;9.00;;;5.40;97.30;;;;;;4961224;28;20179;-84
2021/12/18 06:57:03;;;;;;;32.93;10.20;;;5.40;97.30;;;;;;4961063;28;20183;-84
2021/12/18 06:59:29;;;;;;;35.33;11.57;;;5.40;97.30;;;;;;4959642;28;20179;-86
2021/12/18 07:01:55;;;;;;;33.07;9.20;;;5.40;97.30;;;;;;4955142;28;20226;-82
2021/12/18 07:04:23;;;;;;;29.63;8.37;;;5.40;97.30;;;;;;4984793;28;20410;-84
2021/12/18 07:06:48;;;;;;;32.23;9.30;;;5.40;97.30;;;;;;4978796;28;20210;-84
2021/12/18 07:09:14;;;;;;;30.07;9.10;;;5.40;97.30;;;;;;4965417;28;20426;-83
2021/12/18 07:11:40;;;;;;;30.40;9.53;;;5.40;97.30;;;;;;4979464;28;20198;-86
2021/12/18 07:14:05;;;;;;;30.27;10.00;;;5.50;97.30;;;;;;4970009;28;20177;-86
2021/12/18 07:16:31;;;;;;;30.57;10.63;;;5.50;97.30;;;;;;4977330;28;20193;-86
2021/12/18 07:18:56;;;;;;;35.60;9.40;;;5.50;97.30;;;;;;4959355;28;20179;-84
2021/12/18 07:21:22;;;;;;;32.67;11.40;;;5.40;97.30;;;;;;4978256;28;20205;-85
2021/12/18 07:23:48;;;;;;;38.03;11.47;;;5.40;97.30;;;;;;4980585;28;20173;-85
2021/12/18 07:26:13;;;;;;;32.67;11.37;;;5.50;97.30;;;;;;4979530;28;20217;-84
2021/12/18 07:28:40;;;;;;;26.67;10.47;;;5.50;97.30;;;;;;4978724;28;20240;-83
2021/12/18 07:31:05;;;;;;;34.30;9.97;;;5.50;97.30;;;;;;4977267;28;20692;-86
2021/12/18 07:33:31;;;;;;;32.50;9.57;;;5.50;97.30;;;;;;4962208;28;20409;-84
2021/12/18 07:35:56;;;;;;;38.60;11.23;;;5.50;97.30;;;;;;4952689;28;20665;-85
2021/12/18 07:38:22;;;;;;;31.13;10.70;;;5.50;97.30;;;;;;4958572;28;20277;-84
2021/12/18 07:40:48;;;;;;;35.50;12.50;;;5.50;97.30;;;;;;4961113;28;20298;-85
2021/12/18 07:43:13;;;;;;;46.03;12.00;;;5.50;97.30;;;;;;4983779;28;20183;-85
2021/12/18 07:45:39;;;;;;;48.93;14.10;;;5.50;97.30;;;;;;4961761;28;20206;-84
2021/12/18 07:48:05;;;;;;;45.10;14.33;;;5.50;97.30;;;;;;4978500;28;20170;-85
2021/12/18 07:50:32;;;;;;;47.97;13.50;;;5.50;97.30;;;;;;4944608;29;20234;-85
2021/12/18 07:52:58;;;;;;;40.37;13.60;;;5.50;97.30;;;;;;4946903;28;20183;-84
2021/12/18 07:55:24;;;;;;;40.47;12.50;;;5.40;97.30;;;;;;4959206;28;20452;-84
2021/12/18 07:57:54;;;;;;;44.33;14.67;;;5.40;97.30;;;;;;4975065;28;20805;-84
2021/12/18 08:00:19;;;;;;;42.57;13.17;;;5.40;97.30;;;;;;4960771;28;20426;-85
2021/12/18 08:02:45;;;;;;;38.47;12.30;;;5.40;97.30;;;;;;4978762;28;20592;-85
2021/12/18 08:05:11;;;;;;;43.07;12.70;;;5.40;97.30;;;;;;4978320;28;20216;-84
2021/12/18 08:07:36;;;;;;;40.40;12.70;;;5.40;97.30;;;;;;4995605;28;20202;-84
2021/12/18 08:10:04;;;;;;;41.47;13.10;;;5.40;97.30;;;;;;4995332;28;20188;-85
2021/12/18 08:12:29;;;;;;;40.73;11.80;;;5.40;97.30;;;;;;4994855;28;20180;-84
2021/12/18 08:14:56;;;;;;;41.73;13.37;;;5.40;97.30;;;;;;4978268;28;20507;-83
2021/12/18 08:17:25;;;;;;;41.70;12.50;;;5.50;97.30;;;;;;4978784;28;20653;-84
2021/12/18 08:19:51;;;;;;;33.53;11.43;;;5.50;97.30;;;;;;4993820;28;20524;-84
2021/12/18 08:22:16;;;;;;;43.03;14.67;;;5.50;97.30;;;;;;4989015;28;20480;-84
2021/12/18 08:24:42;;;;;;;35.20;12.63;;;5.50;97.30;;;;;;4994014;28;20186;-84
2021/12/18 08:27:08;;;;;;;34.33;12.03;;;5.50;97.30;;;;;;4981287;28;20276;-85
2021/12/18 08:29:34;;;;;;;40.83;11.97;;;5.50;97.30;;;;;;4992309;28;20186;-85
2021/12/18 08:31:59;;;;;;;34.43;12.23;;;5.50;97.30;;;;;;4995225;28;20440;-85
2021/12/18 08:34:25;;;;;;;32.97;9.97;;;5.50;97.30;;;;;;4981939;28;20185;-85
2021/12/18 08:36:51;;;;;;;37.63;10.60;;;5.50;97.30;;;;;;4980844;28;20193;-84
2021/12/18 08:39:17;;;;;;;35.13;9.67;;;5.50;97.30;;;;;;4996798;28;20235;-86
2021/12/18 08:41:46;;;;;;;24.83;8.73;;;5.50;97.30;;;;;;4979917;28;20429;-84
2021/12/18 08:44:12;;;;;;;28.97;9.00;;;5.50;97.30;;;;;;4969074;28;20461;-84
2021/12/18 08:46:38;;;;;;;31.13;9.23;;;5.60;97.30;;;;;;4979625;28;20477;-83
2021/12/18 08:49:04;;;;;;;28.67;11.10;;;5.60;97.30;;;;;;4978762;28;20500;-84
2021/12/18 08:51:30;;;;;;;26.07;9.87;;;5.60;97.30;;;;;;4961044;28;20516;-85
2021/12/18 08:53:56;;;;;;;21.80;8.70;;;5.60;97.30;;;;;;4977189;28;20421;-85
2021/12/18 08:56:21;;;;;;;20.30;7.40;;;5.60;97.30;;;;;;4960848;28;20190;-84
2021/12/18 08:58:47;;;;;;;26.47;8.43;;;5.60;97.30;;;;;;4975634;28;20178;-85
2021/12/18 09:01:12;;;;;;;21.37;6.97;;;5.70;97.30;;;;;;4972993;28;20237;-84
2021/12/18 09:03:38;;;;;;;24.60;9.60;;;5.70;97.30;;;;;;4961096;28;20273;-85
2021/12/18 09:06:04;;;;;;;19.60;7.60;;;5.70;97.30;;;;;;4963055;28;20209;-82
2021/12/18 09:08:29;;;;;;;25.20;7.47;;;5.70;97.30;;;;;;4980685;28;20273;-82
2021/12/18 09:10:55;;;;;;;22.77;7.50;;;5.70;97.30;;;;;;4980331;28;20205;-84
2021/12/18 09:13:20;;;;;;;20.97;7.13;;;5.80;97.30;;;;;;4981845;28;20178;-84
2021/12/18 09:15:46;;;;;;;12.47;6.10;;;5.80;97.30;;;;;;4983594;28;20200;-80
2021/12/18 09:18:12;;;;;;;17.93;6.47;;;5.80;97.30;;;;;;4997884;28;20182;-82
2021/12/18 09:20:41;;;;;;;19.40;5.90;;;5.80;97.30;;;;;;5001420;28;21115;-84
2021/12/18 09:23:07;;;;;;;18.40;6.23;;;5.80;97.30;;;;;;4982509;28;20194;-82
2021/12/18 09:25:37;;;;;;;19.93;7.17;;;5.80;97.30;;;;;;4999644;28;20547;-84
2021/12/18 09:28:07;;;;;;;20.17;6.80;;;5.80;97.30;;;;;;4982359;28;20417;-84
2021/12/18 09:30:37;;;;;;;20.13;8.57;;;5.70;97.30;;;;;;4971456;28;20449;-84
2021/12/18 09:33:06;;;;;;;17.80;6.57;;;5.80;97.30;;;;;;4980583;28;20422;-85
2021/12/18 09:35:31;;;;;;;16.83;6.10;;;5.80;97.30;;;;;;4978013;28;20418;-85
2021/12/18 09:37:57;;;;;;;25.83;7.00;;;5.80;97.30;;;;;;4979518;28;20436;-84
2021/12/18 09:40:23;;;;;;;20.43;6.37;;;5.80;97.30;;;;;;4977639;28;20298;-84
2021/12/18 09:42:48;;;;;;;15.47;5.23;;;5.80;97.30;;;;;;4981071;28;20182;-82
2021/12/18 09:45:15;;;;;;;25.47;6.80;;;5.80;97.30;;;;;;4999793;28;20221;-84
2021/12/18 09:47:43;;;;;;;26.03;8.90;;;5.80;97.30;;;;;;4986241;28;20198;-84
2021/12/18 09:50:09;;;;;;;19.13;7.30;;;5.80;97.30;;;;;;4984345;28;20927;-83
2021/12/18 09:52:35;;;;;;;23.17;7.00;;;5.80;97.30;;;;;;4984909;28;20421;-83
2021/12/18 09:55:02;;;;;;;16.40;6.80;;;5.80;97.30;;;;;;4985619;28;20421;-84
2021/12/18 09:57:28;;;;;;;18.47;7.13;;;5.80;97.30;;;;;;4984913;28;20517;-84
2021/12/18 09:59:54;;;;;;;23.40;10.10;;;5.80;97.30;;;;;;5001711;28;20508;-84
2021/12/18 10:02:19;;;;;;;15.80;6.17;;;5.80;97.30;;;;;;4967382;28;20240;-84
2021/12/18 10:04:45;;;;;;;15.13;6.40;;;5.80;97.30;;;;;;4980740;28;20191;-84
2021/12/18 10:07:18;;;;;;;18.33;6.63;;;5.90;97.30;;;;;;4983412;28;20707;-84
2021/12/18 10:09:45;;;;;;;13.27;4.97;;;5.80;97.30;;;;;;4977168;28;20180;-83
2021/12/18 10:12:16;;;;;;;21.50;8.97;;;5.80;97.30;;;;;;4963511;28;20453;-84
2021/12/18 10:14:43;;;;;;;19.20;7.33;;;5.80;97.30;;;;;;4962094;28;20418;-82
2021/12/18 10:17:41;;;;;;;16.80;6.57;;;5.90;97.30;;;;;;4961088;28;20498;-84
2021/12/18 10:20:09;;;;;;;24.97;8.50;;;5.90;97.30;;;;;;4955077;28;20422;-83
2021/12/18 10:22:49;;;;;;;24.17;8.80;;;6.00;97.30;;;;;;4979201;28;20476;-83
2021/12/18 10:25:20;;;;;;;25.10;8.70;;;6.00;97.30;;;;;;4980094;28;20843;-85
2021/12/18 10:28:02;;;;;;;28.57;9.87;;;6.00;97.30;;;;;;4980391;28;20509;-84
2021/12/18 10:30:29;;;;;;;30.97;11.43;;;6.00;97.30;;;;;;4980050;28;20506;-83
2021/12/18 10:33:04;;;;;;;30.93;11.23;;;6.10;97.30;;;;;;4965773;28;20418;-85
2021/12/18 10:35:51;;;;;;;36.10;11.90;;;6.00;97.30;;;;;;4965996;28;20509;-84
2021/12/18 10:38:50;;;;;;;34.93;12.40;;;6.00;97.30;;;;;;4964758;28;20418;-85
2021/12/18 10:41:26;;;;;;;35.67;13.03;;;6.00;97.30;;;;;;4965140;28;20447;-84
2021/12/18 10:44:04;;;;;;;36.60;13.03;;;6.00;97.30;;;;;;4981783;28;20936;-83
2021/12/18 10:46:31;;;;;;;36.17;13.63;;;6.00;97.30;;;;;;4982447;28;20972;-83
2021/12/18 10:49:08;;;;;;;32.33;12.07;;;5.90;97.30;;;;;;4967103;28;20441;-84
2021/12/18 10:51:36;;;;;;;28.80;11.33;;;5.90;97.30;;;;;;4964823;28;20441;-84
2021/12/18 10:54:09;;;;;;;40.70;12.30;;;5.90;97.30;;;;;;4964406;28;20414;-84
2021/12/18 10:56:41;;;;;;;32.27;11.67;;;5.90;97.30;;;;;;4964462;28;20422;-84
2021/12/18 10:59:21;;;;;;;28.27;10.17;;;5.90;97.30;;;;;;4981173;28;20421;-83
2021/12/18 11:01:52;;;;;;;28.17;10.53;;;5.90;97.30;;;;;;4975276;28;20477;-82
2021/12/18 11:04:29;;;;;;;28.20;12.40;;;5.90;97.30;;;;;;4962590;28;20434;-85
2021/12/18 11:06:55;;;;;;;24.20;10.43;;;5.90;97.30;;;;;;4944655;29;20627;-84
2021/12/18 11:09:33;;;;;;;23.53;10.23;;;6.00;97.30;;;;;;4945512;29;20937;-84
2021/12/18 11:14:46;;;;;;;25.00;10.83;;;6.00;97.30;;;;;;4971967;28;20450;-85
2021/12/18 11:17:14;;;;;;;23.37;7.50;;;6.00;97.30;;;;;;4976701;28;20509;-84
2021/12/18 11:19:41;;;;;;;18.10;7.97;;;6.00;97.30;;;;;;4949241;28;20425;-83
2021/12/18 11:22:10;;;;;;;14.77;6.40;;;6.00;97.30;;;;;;4952811;28;20447;-81
2021/12/18 11:24:37;;;;;;;31.27;10.20;;;6.00;97.30;;;;;;4962197;29;20433;-85
2021/12/18 11:27:10;;;;;;;20.93;9.13;;;5.90;97.30;;;;;;4942130;29;20491;-83
2021/12/18 11:29:44;;;;;;;26.97;9.20;;;6.00;97.30;;;;;;4945780;29;20481;-85
2021/12/18 11:32:36;;;;;;;20.33;9.10;;;6.00;97.30;;;;;;4958972;28;20521;-85
2021/12/18 11:35:06;;;;;;;22.10;8.73;;;6.00;97.30;;;;;;4949034;28;21429;-85
2021/12/18 11:37:50;;;;;;;19.87;8.07;;;6.00;97.30;;;;;;4968675;28;20509;-84
2021/12/18 11:40:19;;;;;;;16.80;7.23;;;6.00;97.30;;;;;;4965826;28;20447;-84
2021/12/18 11:42:45;;;;;;;17.83;6.40;;;6.00;97.30;;;;;;4966993;28;20418;-84
2021/12/18 11:45:11;;;;;;;22.47;8.33;;;6.00;97.30;;;;;;4963846;28;20464;-85
2021/12/18 11:47:42;;;;;;;20.23;9.33;;;6.00;97.30;;;;;;4959073;28;20283;-84
2021/12/18 11:50:19;;;;;;;20.13;8.20;;;6.00;97.30;;;;;;4971553;28;20414;-84
2021/12/18 11:53:12;;;;;;;31.13;11.20;;;6.00;97.30;;;;;;4967643;28;20868;-83
2021/12/18 11:55:58;;;;;;;20.37;9.60;;;6.00;97.30;;;;;;4951392;28;20476;-83
2021/12/18 11:58:33;;;;;;;25.20;9.30;;;6.00;97.30;;;;;;4940590;29;20450;-86
2021/12/18 12:01:21;;;;;;;25.00;9.00;;;6.00;97.30;;;;;;4972006;28;20469;-82
2021/12/18 12:03:49;;;;;;;23.10;8.07;;;6.00;97.30;;;;;;4949882;28;20445;-84
2021/12/18 12:06:35;;;;;;;30.07;9.40;;;6.00;97.30;;;;;;4959498;29;20462;-83
2021/12/18 12:09:29;;;;;;;39.00;10.47;;;6.00;97.30;;;;;;4945069;29;20426;-85
2021/12/18 12:12:08;;;;;;;29.23;10.53;;;6.00;97.30;;;;;;4951843;29;20505;-84
2021/12/18 12:14:39;;;;;;;26.97;10.07;;;6.00;97.30;;;;;;4945295;28;20430;-82
2021/12/18 12:17:19;;;;;;;26.50;9.60;;;6.10;97.30;;;;;;4943941;29;20427;-85
2021/12/18 12:19:46;;;;;;;26.03;9.57;;;6.10;97.30;;;;;;4943406;29;20419;-83
2021/12/18 12:22:35;;;;;;;25.60;10.07;;;6.10;97.30;;;;;;4943737;29;20469;-84
2021/12/18 12:25:04;;;;;;;23.10;9.43;;;6.10;97.30;;;;;;4941854;29;20441;-84
2021/12/18 12:27:37;;;;;;;20.73;9.00;;;6.10;97.30;;;;;;4942693;29;20419;-85
2021/12/18 12:30:25;;;;;;;25.20;9.20;;;6.10;97.30;;;;;;4959493;29;20399;-83
2021/12/18 12:32:59;;;;;;;21.10;9.80;;;6.10;97.30;;;;;;4942485;29;20419;-84
2021/12/18 12:35:26;;;;;;;20.67;8.50;;;6.10;97.30;;;;;;4959216;29;20504;-84
2021/12/18 12:37:54;;;;;;;32.53;11.07;;;6.10;97.30;;;;;;4941830;29;20419;-84
2021/12/18 12:40:34;;;;;;;19.60;8.93;;;6.10;97.30;;;;;;4942348;29;20510;-84
2021/12/18 12:43:12;;;;;;;26.30;9.40;;;6.10;97.30;;;;;;4941214;29;20422;-84
2021/12/18 12:45:40;;;;;;;14.77;8.40;;;6.10;97.30;;;;;;4941137;29;20465;-85
2021/12/18 12:48:06;;;;;;;18.90;7.10;;;6.10;97.30;;;;;;4958277;29;20407;-84
2021/12/18 12:50:33;;;;;;;18.57;8.13;;;6.10;97.30;;;;;;4941463;29;20445;-84
2021/12/18 12:53:07;;;;;;;14.47;7.30;;;6.20;97.30;;;;;;4957407;29;20175;-85
2021/12/18 12:55:44;;;;;;;16.10;6.37;;;6.20;97.30;;;;;;4941176;29;20447;-84
2021/12/18 12:58:24;;;;;;;19.43;7.73;;;6.20;97.30;;;;;;4956191;28;20799;-85
2021/12/18 13:00:59;;;;;;;14.60;6.40;;;6.20;97.30;;;;;;4942105;29;20833;-84
2021/12/18 13:03:37;;;;;;;15.07;7.27;;;6.20;97.30;;;;;;4941088;29;20500;-82
2021/12/18 13:06:04;;;;;;;16.80;7.03;;;6.20;97.30;;;;;;4966869;28;20465;-83
2021/12/18 13:08:32;;;;;;;15.67;7.13;;;6.20;97.30;;;;;;4960605;28;20513;-83
2021/12/18 13:11:00;;;;;;;11.80;6.00;;;6.20;97.30;;;;;;4959846;28;20456;-83
2021/12/18 13:13:28;;;;;;;13.30;5.07;;;6.20;97.30;;;;;;4960069;28;20436;-84
2021/12/18 13:16:11;;;;;;;9.40;5.20;;;6.20;97.30;;;;;;4959683;28;20430;-84
2021/12/18 13:18:45;;;;;;;17.00;6.77;;;6.20;97.30;;;;;;4954716;28;20437;-84
2021/12/18 13:21:16;;;;;;;12.00;5.53;;;6.20;97.30;;;;;;4958302;29;20449;-85
2021/12/18 13:23:44;;;;;;;10.10;5.73;;;6.20;97.30;;;;;;4942916;29;20427;-84
2021/12/18 13:26:27;;;;;;;12.10;5.50;;;6.20;97.30;;;;;;4953365;28;20537;-85
2021/12/18 13:29:02;;;;;;;17.13;7.80;;;6.20;97.30;;;;;;4963201;28;20421;-84
2021/12/18 13:31:30;;;;;;;11.70;5.83;;;6.20;97.30;;;;;;4980260;28;20425;-85
2021/12/18 13:34:05;;;;;;;12.83;5.63;;;6.20;97.30;;;;;;4959605;29;20414;-85
2021/12/18 13:36:43;;;;;;;13.47;6.33;;;6.20;97.30;;;;;;4943713;28;20425;-85